sensor_id;sensor_type;location;lat;lon;timestamp;P1;durP1;ratioP1;P2;durP2;ratioP2
69953;SDS011;57276;51.364;12.376;2023-03-14T00:05:36;4.03;;;0.90;;
69953;SDS011;57276;51.364;12.376;2023-03-14T00:11:38;3.42;;;0.90;;
69953;SDS011;57276;51.364;12.376;2023-03-14T00:17:39;2.40;;;0.70;;
69953;SDS011;57276;51.364;12.376;2023-03-14T00:23:43;4.85;;;0.88;;
69953;SDS011;57276;51.364;12.376;2023-03-14T00:29:45;2.60;;;0.80;;
69953;SDS011;57276;51.364;12.376;2023-03-14T00:35:57;15.13;;;3.42;;
69953;SDS011;57276;51.364;12.376;2023-03-14T00:41:58;2.85;;;0.73;;
69953;SDS011;57276;51.364;12.376;2023-03-14T00:48:00;3.17;;;0.77;;
69953;SDS011;57276;51.364;12.376;2023-03-14T00:54:04;2.58;;;0.70;;
69953;SDS011;57276;51.364;12.376;2023-03-14T01:00:06;2.83;;;0.77;;
69953;SDS011;57276;51.364;12.376;2023-03-14T01:06:13;2.17;;;0.57;;
69953;SDS011;57276;51.364;12.376;2023-03-14T01:12:16;3.05;;;0.65;;
69953;SDS011;57276;51.364;12.376;2023-03-14T01:18:18;2.20;;;0.60;;
69953;SDS011;57276;51.364;12.376;2023-03-14T01:24:19;4.38;;;0.70;;
69953;SDS011;57276;51.364;12.376;2023-03-14T01:30:22;2.33;;;0.53;;
69953;SDS011;57276;51.364;12.376;2023-03-14T01:36:25;2.38;;;0.70;;
69953;SDS011;57276;51.364;12.376;2023-03-14T01:42:27;2.13;;;0.68;;
69953;SDS011;57276;51.364;12.376;2023-03-14T01:48:31;2.60;;;0.70;;
69953;SDS011;57276;51.364;12.376;2023-03-14T01:54:36;2.67;;;0.68;;
69953;SDS011;57276;51.364;12.376;2023-03-14T02:00:38;2.80;;;0.70;;
69953;SDS011;57276;51.364;12.376;2023-03-14T02:06:50;2.33;;;0.50;;
69953;SDS011;57276;51.364;12.376;2023-03-14T02:12:56;2.20;;;0.55;;
69953;SDS011;57276;51.364;12.376;2023-03-14T02:19:25;2.27;;;0.60;;
69953;SDS011;57276;51.364;12.376;2023-03-14T02:25:53;2.33;;;0.52;;
69953;SDS011;57276;51.364;12.376;2023-03-14T02:31:55;2.30;;;0.50;;
69953;SDS011;57276;51.364;12.376;2023-03-14T02:38:00;2.15;;;0.60;;
69953;SDS011;57276;51.364;12.376;2023-03-14T02:44:09;3.25;;;0.70;;
69953;SDS011;57276;51.364;12.376;2023-03-14T02:50:15;3.83;;;0.70;;
69953;SDS011;57276;51.364;12.376;2023-03-14T02:56:19;2.60;;;0.70;;
69953;SDS011;57276;51.364;12.376;2023-03-14T03:02:20;2.00;;;0.60;;
69953;SDS011;57276;51.364;12.376;2023-03-14T03:08:23;2.55;;;0.70;;
69953;SDS011;57276;51.364;12.376;2023-03-14T03:14:25;3.03;;;0.70;;
69953;SDS011;57276;51.364;12.376;2023-03-14T03:20:32;2.03;;;0.60;;
69953;SDS011;57276;51.364;12.376;2023-03-14T03:26:34;2.78;;;0.70;;
69953;SDS011;57276;51.364;12.376;2023-03-14T03:32:38;2.70;;;0.80;;
69953;SDS011;57276;51.364;12.376;2023-03-14T03:38:40;2.30;;;0.60;;
69953;SDS011;57276;51.364;12.376;2023-03-14T03:44:43;3.67;;;0.60;;
69953;SDS011;57276;51.364;12.376;2023-03-14T03:50:45;3.10;;;0.70;;
69953;SDS011;57276;51.364;12.376;2023-03-14T03:56:50;3.25;;;0.52;;
69953;SDS011;57276;51.364;12.376;2023-03-14T04:02:52;2.27;;;0.53;;
69953;SDS011;57276;51.364;12.376;2023-03-14T04:08:54;3.83;;;0.68;;
69953;SDS011;57276;51.364;12.376;2023-03-14T04:15:18;3.60;;;0.95;;
69953;SDS011;57276;51.364;12.376;2023-03-14T04:21:24;3.50;;;0.80;;
69953;SDS011;57276;51.364;12.376;2023-03-14T04:27:30;2.80;;;0.70;;
69953;SDS011;57276;51.364;12.376;2023-03-14T04:33:33;2.30;;;0.60;;
69953;SDS011;57276;51.364;12.376;2023-03-14T04:39:35;3.65;;;0.70;;
69953;SDS011;57276;51.364;12.376;2023-03-14T04:45:44;3.05;;;0.80;;
69953;SDS011;57276;51.364;12.376;2023-03-14T04:51:46;3.10;;;0.80;;
69953;SDS011;57276;51.364;12.376;2023-03-14T04:57:48;3.10;;;0.70;;
69953;SDS011;57276;51.364;12.376;2023-03-14T05:03:49;5.37;;;1.80;;
69953;SDS011;57276;51.364;12.376;2023-03-14T05:10:22;4.35;;;0.88;;
69953;SDS011;57276;51.364;12.376;2023-03-14T05:16:46;3.90;;;0.75;;
69953;SDS011;57276;51.364;12.376;2023-03-14T05:22:57;3.47;;;0.80;;
69953;SDS011;57276;51.364;12.376;2023-03-14T05:29:19;5.65;;;0.95;;
69953;SDS011;57276;51.364;12.376;2023-03-14T05:35:39;3.47;;;1.00;;
69953;SDS011;57276;51.364;12.376;2023-03-14T05:41:53;4.75;;;1.00;;
69953;SDS011;57276;51.364;12.376;2023-03-14T05:48:15;5.30;;;1.08;;
69953;SDS011;57276;51.364;12.376;2023-03-14T05:54:38;5.30;;;1.13;;
69953;SDS011;57276;51.364;12.376;2023-03-14T06:00:54;4.43;;;1.02;;
69953;SDS011;57276;51.364;12.376;2023-03-14T06:07:14;3.33;;;1.00;;
69953;SDS011;57276;51.364;12.376;2023-03-14T06:13:16;5.22;;;1.00;;
69953;SDS011;57276;51.364;12.376;2023-03-14T06:19:18;5.35;;;0.85;;
69953;SDS011;57276;51.364;12.376;2023-03-14T06:25:19;6.40;;;0.73;;
69953;SDS011;57276;51.364;12.376;2023-03-14T06:31:22;4.55;;;0.88;;
69953;SDS011;57276;51.364;12.376;2023-03-14T06:37:33;4.83;;;0.83;;
69953;SDS011;57276;51.364;12.376;2023-03-14T06:43:36;8.73;;;1.20;;
69953;SDS011;57276;51.364;12.376;2023-03-14T06:49:39;4.93;;;0.80;;
69953;SDS011;57276;51.364;12.376;2023-03-14T06:55:41;4.80;;;0.83;;
69953;SDS011;57276;51.364;12.376;2023-03-14T07:01:44;4.50;;;0.90;;
69953;SDS011;57276;51.364;12.376;2023-03-14T07:07:46;4.93;;;0.90;;
69953;SDS011;57276;51.364;12.376;2023-03-14T07:13:48;5.25;;;1.02;;
69953;SDS011;57276;51.364;12.376;2023-03-14T07:19:49;3.83;;;0.80;;
69953;SDS011;57276;51.364;12.376;2023-03-14T07:25:52;3.47;;;0.90;;
69953;SDS011;57276;51.364;12.376;2023-03-14T07:31:57;3.78;;;0.70;;
69953;SDS011;57276;51.364;12.376;2023-03-14T07:37:59;3.77;;;1.00;;
69953;SDS011;57276;51.364;12.376;2023-03-14T07:44:08;4.93;;;0.90;;
69953;SDS011;57276;51.364;12.376;2023-03-14T07:50:10;4.90;;;0.80;;
69953;SDS011;57276;51.364;12.376;2023-03-14T07:56:12;3.63;;;0.70;;
69953;SDS011;57276;51.364;12.376;2023-03-14T08:02:14;4.20;;;0.85;;
69953;SDS011;57276;51.364;12.376;2023-03-14T08:08:16;4.10;;;0.90;;
69953;SDS011;57276;51.364;12.376;2023-03-14T08:14:18;5.65;;;0.80;;
69953;SDS011;57276;51.364;12.376;2023-03-14T08:20:20;4.03;;;1.00;;
69953;SDS011;57276;51.364;12.376;2023-03-14T08:26:22;4.17;;;0.77;;
69953;SDS011;57276;51.364;12.376;2023-03-14T08:32:24;3.33;;;0.70;;
69953;SDS011;57276;51.364;12.376;2023-03-14T08:38:25;3.53;;;1.03;;
69953;SDS011;57276;51.364;12.376;2023-03-14T08:44:27;2.00;;;0.60;;
69953;SDS011;57276;51.364;12.376;2023-03-14T08:50:29;3.95;;;0.88;;
69953;SDS011;57276;51.364;12.376;2023-03-14T08:56:30;5.13;;;0.80;;
69953;SDS011;57276;51.364;12.376;2023-03-14T09:02:32;8.68;;;2.10;;
69953;SDS011;57276;51.364;12.376;2023-03-14T09:08:35;3.57;;;0.70;;
69953;SDS011;57276;51.364;12.376;2023-03-14T09:14:39;3.08;;;0.70;;
69953;SDS011;57276;51.364;12.376;2023-03-14T09:20:41;3.30;;;0.52;;
69953;SDS011;57276;51.364;12.376;2023-03-14T09:26:44;3.93;;;0.67;;
69953;SDS011;57276;51.364;12.376;2023-03-14T09:32:45;3.88;;;0.60;;
69953;SDS011;57276;51.364;12.376;2023-03-14T09:38:47;3.00;;;0.63;;
69953;SDS011;57276;51.364;12.376;2023-03-14T09:50:56;3.45;;;0.60;;
69953;SDS011;57276;51.364;12.376;2023-03-14T09:56:59;2.70;;;0.60;;
69953;SDS011;57276;51.364;12.376;2023-03-14T10:03:12;2.20;;;0.50;;
69953;SDS011;57276;51.364;12.376;2023-03-14T10:09:22;3.47;;;0.80;;
69953;SDS011;57276;51.364;12.376;2023-03-14T10:15:31;2.63;;;0.65;;
69953;SDS011;57276;51.364;12.376;2023-03-14T10:21:40;2.20;;;0.50;;
69953;SDS011;57276;51.364;12.376;2023-03-14T10:27:43;3.27;;;0.80;;
69953;SDS011;57276;51.364;12.376;2023-03-14T10:33:57;3.42;;;0.73;;
69953;SDS011;57276;51.364;12.376;2023-03-14T10:39:59;2.00;;;0.50;;
69953;SDS011;57276;51.364;12.376;2023-03-14T10:46:16;2.85;;;0.50;;
69953;SDS011;57276;51.364;12.376;2023-03-14T10:52:37;2.35;;;0.50;;
69953;SDS011;57276;51.364;12.376;2023-03-14T10:59:03;4.50;;;0.70;;
69953;SDS011;57276;51.364;12.376;2023-03-14T11:11:22;2.03;;;0.50;;
69953;SDS011;57276;51.364;12.376;2023-03-14T11:18:28;3.08;;;0.55;;
69953;SDS011;57276;51.364;12.376;2023-03-14T11:24:01;3.47;;;0.50;;
69953;SDS011;57276;51.364;12.376;2023-03-14T11:36:15;2.35;;;0.60;;
69953;SDS011;57276;51.364;12.376;2023-03-14T11:42:19;1.70;;;0.40;;
69953;SDS011;57276;51.364;12.376;2023-03-14T11:48:25;2.70;;;0.40;;
69953;SDS011;57276;51.364;12.376;2023-03-14T11:54:33;1.70;;;0.40;;
69953;SDS011;57276;51.364;12.376;2023-03-14T12:00:35;2.20;;;0.60;;
69953;SDS011;57276;51.364;12.376;2023-03-14T12:06:49;1.90;;;0.30;;
69953;SDS011;57276;51.364;12.376;2023-03-14T12:12:50;1.63;;;0.37;;
69953;SDS011;57276;51.364;12.376;2023-03-14T12:18:53;2.25;;;0.45;;
69953;SDS011;57276;51.364;12.376;2023-03-14T12:24:56;1.92;;;0.40;;
69953;SDS011;57276;51.364;12.376;2023-03-14T12:31:30;5.50;;;0.60;;
69953;SDS011;57276;51.364;12.376;2023-03-14T12:37:28;2.47;;;0.40;;
69953;SDS011;57276;51.364;12.376;2023-03-14T12:43:35;1.33;;;0.40;;
69953;SDS011;57276;51.364;12.376;2023-03-14T12:49:37;2.13;;;0.47;;
69953;SDS011;57276;51.364;12.376;2023-03-14T13:01:59;2.00;;;0.50;;
69953;SDS011;57276;51.364;12.376;2023-03-14T13:08:03;3.30;;;0.60;;
69953;SDS011;57276;51.364;12.376;2023-03-14T13:14:08;1.97;;;0.57;;
69953;SDS011;57276;51.364;12.376;2023-03-14T13:20:18;1.52;;;0.40;;
69953;SDS011;57276;51.364;12.376;2023-03-14T13:26:24;2.35;;;0.60;;
69953;SDS011;57276;51.364;12.376;2023-03-14T13:32:27;1.20;;;0.40;;
69953;SDS011;57276;51.364;12.376;2023-03-14T13:38:29;1.88;;;0.50;;
69953;SDS011;57276;51.364;12.376;2023-03-14T13:44:35;2.07;;;0.50;;
69953;SDS011;57276;51.364;12.376;2023-03-14T13:50:37;2.28;;;0.50;;
69953;SDS011;57276;51.364;12.376;2023-03-14T13:56:39;1.60;;;0.50;;
69953;SDS011;57276;51.364;12.376;2023-03-14T14:02:42;1.30;;;0.40;;
69953;SDS011;57276;51.364;12.376;2023-03-14T14:08:43;1.70;;;0.43;;
69953;SDS011;57276;51.364;12.376;2023-03-14T14:14:49;2.40;;;0.60;;
69953;SDS011;57276;51.364;12.376;2023-03-14T14:20:55;1.75;;;0.40;;
69953;SDS011;57276;51.364;12.376;2023-03-14T14:27:02;2.10;;;0.60;;
69953;SDS011;57276;51.364;12.376;2023-03-14T14:33:19;1.50;;;0.40;;
69953;SDS011;57276;51.364;12.376;2023-03-14T14:39:23;3.83;;;0.70;;
69953;SDS011;57276;51.364;12.376;2023-03-14T14:45:26;1.67;;;0.40;;
69953;SDS011;57276;51.364;12.376;2023-03-14T14:51:32;1.98;;;0.50;;
69953;SDS011;57276;51.364;12.376;2023-03-14T14:57:37;3.05;;;0.60;;
69953;SDS011;57276;51.364;12.376;2023-03-14T15:03:43;5.27;;;0.90;;
69953;SDS011;57276;51.364;12.376;2023-03-14T15:09:45;2.00;;;0.60;;
69953;SDS011;57276;51.364;12.376;2023-03-14T15:15:47;12.20;;;1.20;;
69953;SDS011;57276;51.364;12.376;2023-03-14T15:21:49;28.85;;;2.00;;
69953;SDS011;57276;51.364;12.376;2023-03-14T15:27:50;8.02;;;1.25;;
69953;SDS011;57276;51.364;12.376;2023-03-14T15:33:52;6.97;;;1.10;;
69953;SDS011;57276;51.364;12.376;2023-03-14T15:39:53;4.25;;;1.38;;
69953;SDS011;57276;51.364;12.376;2023-03-14T15:45:55;3.67;;;0.60;;
69953;SDS011;57276;51.364;12.376;2023-03-14T15:51:59;4.43;;;0.95;;
69953;SDS011;57276;51.364;12.376;2023-03-14T15:58:00;2.85;;;0.80;;
69953;SDS011;57276;51.364;12.376;2023-03-14T16:04:03;2.27;;;0.60;;
69953;SDS011;57276;51.364;12.376;2023-03-14T16:10:05;3.97;;;0.70;;
69953;SDS011;57276;51.364;12.376;2023-03-14T16:16:07;2.00;;;0.53;;
69953;SDS011;57276;51.364;12.376;2023-03-14T16:22:09;2.80;;;0.60;;
69953;SDS011;57276;51.364;12.376;2023-03-14T16:28:11;2.15;;;0.50;;
69953;SDS011;57276;51.364;12.376;2023-03-14T16:34:15;2.50;;;0.50;;
69953;SDS011;57276;51.364;12.376;2023-03-14T16:40:16;5.25;;;1.00;;
69953;SDS011;57276;51.364;12.376;2023-03-14T16:46:19;7.73;;;1.30;;
69953;SDS011;57276;51.364;12.376;2023-03-14T16:52:23;5.65;;;1.40;;
69953;SDS011;57276;51.364;12.376;2023-03-14T16:58:25;10.15;;;1.70;;
69953;SDS011;57276;51.364;12.376;2023-03-14T17:04:27;5.33;;;1.20;;
69953;SDS011;57276;51.364;12.376;2023-03-14T17:10:28;5.50;;;1.52;;
69953;SDS011;57276;51.364;12.376;2023-03-14T17:16:32;9.17;;;1.80;;
69953;SDS011;57276;51.364;12.376;2023-03-14T17:22:34;7.13;;;1.60;;
69953;SDS011;57276;51.364;12.376;2023-03-14T17:28:35;4.93;;;1.77;;
69953;SDS011;57276;51.364;12.376;2023-03-14T17:34:37;9.10;;;1.87;;
69953;SDS011;57276;51.364;12.376;2023-03-14T17:40:38;8.65;;;2.10;;
69953;SDS011;57276;51.364;12.376;2023-03-14T17:46:40;8.90;;;1.80;;
69953;SDS011;57276;51.364;12.376;2023-03-14T17:52:41;9.65;;;1.70;;
69953;SDS011;57276;51.364;12.376;2023-03-14T17:58:43;8.77;;;1.52;;
69953;SDS011;57276;51.364;12.376;2023-03-14T18:04:45;7.97;;;1.57;;
69953;SDS011;57276;51.364;12.376;2023-03-14T18:10:51;8.93;;;2.05;;
69953;SDS011;57276;51.364;12.376;2023-03-14T18:16:53;5.53;;;1.03;;
69953;SDS011;57276;51.364;12.376;2023-03-14T18:22:54;11.80;;;1.73;;
69953;SDS011;57276;51.364;12.376;2023-03-14T18:28:56;9.95;;;1.48;;
69953;SDS011;57276;51.364;12.376;2023-03-14T18:34:57;11.53;;;1.53;;
69953;SDS011;57276;51.364;12.376;2023-03-14T18:41:05;9.82;;;1.10;;
69953;SDS011;57276;51.364;12.376;2023-03-14T18:47:07;9.77;;;1.30;;
69953;SDS011;57276;51.364;12.376;2023-03-14T18:53:09;9.80;;;1.17;;
69953;SDS011;57276;51.364;12.376;2023-03-14T18:59:12;10.35;;;1.35;;
69953;SDS011;57276;51.364;12.376;2023-03-14T19:05:13;10.93;;;1.87;;
69953;SDS011;57276;51.364;12.376;2023-03-14T19:11:15;16.17;;;2.47;;
69953;SDS011;57276;51.364;12.376;2023-03-14T19:17:17;8.97;;;1.20;;
69953;SDS011;57276;51.364;12.376;2023-03-14T19:23:19;9.68;;;1.58;;
69953;SDS011;57276;51.364;12.376;2023-03-14T19:29:24;12.70;;;1.70;;
69953;SDS011;57276;51.364;12.376;2023-03-14T19:35:28;8.77;;;1.43;;
69953;SDS011;57276;51.364;12.376;2023-03-14T19:41:30;12.00;;;2.00;;
69953;SDS011;57276;51.364;12.376;2023-03-14T19:47:31;10.93;;;2.27;;
69953;SDS011;57276;51.364;12.376;2023-03-14T19:53:33;8.30;;;1.80;;
69953;SDS011;57276;51.364;12.376;2023-03-14T19:59:36;12.13;;;1.70;;
69953;SDS011;57276;51.364;12.376;2023-03-14T20:05:38;8.67;;;1.27;;
69953;SDS011;57276;51.364;12.376;2023-03-14T20:11:40;9.27;;;1.48;;
69953;SDS011;57276;51.364;12.376;2023-03-14T20:17:44;10.50;;;1.53;;
69953;SDS011;57276;51.364;12.376;2023-03-14T20:23:46;10.80;;;1.48;;
69953;SDS011;57276;51.364;12.376;2023-03-14T20:29:48;10.80;;;1.67;;
69953;SDS011;57276;51.364;12.376;2023-03-14T20:35:53;10.30;;;1.70;;
69953;SDS011;57276;51.364;12.376;2023-03-14T20:41:56;13.50;;;1.60;;
69953;SDS011;57276;51.364;12.376;2023-03-14T20:47:58;7.57;;;1.90;;
69953;SDS011;57276;51.364;12.376;2023-03-14T20:54:00;7.50;;;1.50;;
69953;SDS011;57276;51.364;12.376;2023-03-14T21:00:01;7.75;;;1.48;;
69953;SDS011;57276;51.364;12.376;2023-03-14T21:06:08;12.50;;;2.17;;
69953;SDS011;57276;51.364;12.376;2023-03-14T21:12:09;6.30;;;1.20;;
69953;SDS011;57276;51.364;12.376;2023-03-14T21:18:11;7.27;;;1.43;;
69953;SDS011;57276;51.364;12.376;2023-03-14T21:24:14;8.85;;;1.40;;
69953;SDS011;57276;51.364;12.376;2023-03-14T21:30:16;7.40;;;1.73;;
69953;SDS011;57276;51.364;12.376;2023-03-14T21:36:17;12.40;;;1.50;;
69953;SDS011;57276;51.364;12.376;2023-03-14T21:42:23;9.70;;;1.38;;
69953;SDS011;57276;51.364;12.376;2023-03-14T21:48:25;6.13;;;1.17;;
69953;SDS011;57276;51.364;12.376;2023-03-14T21:54:26;5.30;;;1.27;;
69953;SDS011;57276;51.364;12.376;2023-03-14T22:00:29;6.10;;;1.10;;
69953;SDS011;57276;51.364;12.376;2023-03-14T22:06:31;10.87;;;1.37;;
69953;SDS011;57276;51.364;12.376;2023-03-14T22:12:35;11.23;;;1.20;;
69953;SDS011;57276;51.364;12.376;2023-03-14T22:18:37;5.23;;;1.03;;
69953;SDS011;57276;51.364;12.376;2023-03-14T22:24:38;5.53;;;1.02;;
69953;SDS011;57276;51.364;12.376;2023-03-14T22:30:40;5.22;;;1.17;;
69953;SDS011;57276;51.364;12.376;2023-03-14T22:36:42;5.63;;;1.00;;
69953;SDS011;57276;51.364;12.376;2023-03-14T22:42:43;7.55;;;1.00;;
69953;SDS011;57276;51.364;12.376;2023-03-14T22:48:48;10.97;;;1.53;;
69953;SDS011;57276;51.364;12.376;2023-03-14T22:54:53;7.50;;;0.82;;
69953;SDS011;57276;51.364;12.376;2023-03-14T23:00:55;16.92;;;1.80;;
69953;SDS011;57276;51.364;12.376;2023-03-14T23:06:57;8.03;;;1.00;;
69953;SDS011;57276;51.364;12.376;2023-03-14T23:12:59;9.73;;;1.20;;
69953;SDS011;57276;51.364;12.376;2023-03-14T23:19:00;10.40;;;1.30;;
69953;SDS011;57276;51.364;12.376;2023-03-14T23:25:02;8.88;;;1.25;;
69953;SDS011;57276;51.364;12.376;2023-03-14T23:31:04;6.25;;;1.40;;
69953;SDS011;57276;51.364;12.376;2023-03-14T23:37:06;5.43;;;1.27;;
69953;SDS011;57276;51.364;12.376;2023-03-14T23:43:08;5.97;;;1.20;;
69953;SDS011;57276;51.364;12.376;2023-03-14T23:49:09;7.13;;;1.00;;
69953;SDS011;57276;51.364;12.376;2023-03-14T23:55:14;7.13;;;0.90;;
